sensor_id;sensor_type;location;lat;lon;timestamp;temperature;humidity
16283;DHT22;8249;48.708;9.030;2024-03-08T00:02:37;2.90;99.90
16283;DHT22;8249;48.708;9.030;2024-03-08T00:05:06;2.90;99.90
16283;DHT22;8249;48.708;9.030;2024-03-08T00:07:34;2.80;99.90
16283;DHT22;8249;48.708;9.030;2024-03-08T00:10:03;2.80;99.90
16283;DHT22;8249;48.708;9.030;2024-03-08T00:12:31;2.80;99.90
16283;DHT22;8249;48.708;9.030;2024-03-08T00:14:58;2.80;99.90
16283;DHT22;8249;48.708;9.030;2024-03-08T00:17:25;2.70;99.90
16283;DHT22;8249;48.708;9.030;2024-03-08T00:19:52;2.70;99.90
16283;DHT22;8249;48.708;9.030;2024-03-08T00:22:19;2.70;99.90
16283;DHT22;8249;48.708;9.030;2024-03-08T00:24:47;2.70;99.90
16283;DHT22;8249;48.708;9.030;2024-03-08T00:27:17;2.60;99.90
16283;DHT22;8249;48.708;9.030;2024-03-08T00:29:46;2.60;99.90
16283;DHT22;8249;48.708;9.030;2024-03-08T00:32:13;2.60;99.90
16283;DHT22;8249;48.708;9.030;2024-03-08T00:34:40;2.60;99.90
16283;DHT22;8249;48.708;9.030;2024-03-08T00:37:07;2.50;99.90
16283;DHT22;8249;48.708;9.030;2024-03-08T00:39:34;2.50;99.90
16283;DHT22;8249;48.708;9.030;2024-03-08T00:42:01;2.50;99.90
16283;DHT22;8249;48.708;9.030;2024-03-08T00:44:30;2.50;99.90
16283;DHT22;8249;48.708;9.030;2024-03-08T00:46:57;2.50;99.90
16283;DHT22;8249;48.708;9.030;2024-03-08T00:49:24;2.40;99.90
16283;DHT22;8249;48.708;9.030;2024-03-08T00:51:51;2.40;99.90
16283;DHT22;8249;48.708;9.030;2024-03-08T00:54:18;2.30;99.90
16283;DHT22;8249;48.708;9.030;2024-03-08T00:56:45;2.30;99.90
16283;DHT22;8249;48.708;9.030;2024-03-08T00:59:11;2.40;99.90
16283;DHT22;8249;48.708;9.030;2024-03-08T01:01:41;2.40;99.90
16283;DHT22;8249;48.708;9.030;2024-03-08T01:04:09;2.30;99.90
16283;DHT22;8249;48.708;9.030;2024-03-08T01:06:36;2.40;99.90
16283;DHT22;8249;48.708;9.030;2024-03-08T01:09:03;2.40;99.90
16283;DHT22;8249;48.708;9.030;2024-03-08T01:11:32;2.30;99.90
16283;DHT22;8249;48.708;9.030;2024-03-08T01:13:59;2.30;99.90
16283;DHT22;8249;48.708;9.030;2024-03-08T01:16:26;2.30;99.90
16283;DHT22;8249;48.708;9.030;2024-03-08T01:18:55;2.20;99.90
16283;DHT22;8249;48.708;9.030;2024-03-08T01:21:21;2.20;99.90
16283;DHT22;8249;48.708;9.030;2024-03-08T01:23:48;2.20;99.90
16283;DHT22;8249;48.708;9.030;2024-03-08T01:26:15;2.20;99.90
16283;DHT22;8249;48.708;9.030;2024-03-08T01:28:42;2.20;99.90
16283;DHT22;8249;48.708;9.030;2024-03-08T01:31:09;2.10;99.90
16283;DHT22;8249;48.708;9.030;2024-03-08T01:33:37;2.10;99.90
16283;DHT22;8249;48.708;9.030;2024-03-08T01:36:07;2.10;99.90
16283;DHT22;8249;48.708;9.030;2024-03-08T01:38:34;2.10;99.90
16283;DHT22;8249;48.708;9.030;2024-03-08T01:41:01;2.10;99.90
16283;DHT22;8249;48.708;9.030;2024-03-08T01:43:29;2.10;99.90
16283;DHT22;8249;48.708;9.030;2024-03-08T01:45:57;2.10;99.90
16283;DHT22;8249;48.708;9.030;2024-03-08T01:48:25;2.00;99.90
16283;DHT22;8249;48.708;9.030;2024-03-08T01:50:53;2.00;99.90
16283;DHT22;8249;48.708;9.030;2024-03-08T01:53:22;2.00;99.90
16283;DHT22;8249;48.708;9.030;2024-03-08T01:55:53;2.00;99.90
16283;DHT22;8249;48.708;9.030;2024-03-08T01:58:21;1.90;99.90
16283;DHT22;8249;48.708;9.030;2024-03-08T02:00:49;1.90;99.90
16283;DHT22;8249;48.708;9.030;2024-03-08T02:03:16;1.90;99.90
16283;DHT22;8249;48.708;9.030;2024-03-08T02:05:43;1.90;99.90
16283;DHT22;8249;48.708;9.030;2024-03-08T02:08:10;1.90;99.90
16283;DHT22;8249;48.708;9.030;2024-03-08T02:10:41;1.90;99.90
16283;DHT22;8249;48.708;9.030;2024-03-08T02:13:08;1.90;99.90
16283;DHT22;8249;48.708;9.030;2024-03-08T02:15:55;1.80;99.90
16283;DHT22;8249;48.708;9.030;2024-03-08T02:18:23;1.80;99.90
16283;DHT22;8249;48.708;9.030;2024-03-08T02:20:51;1.80;99.90
16283;DHT22;8249;48.708;9.030;2024-03-08T02:23:18;1.80;99.90
16283;DHT22;8249;48.708;9.030;2024-03-08T02:25:46;1.80;99.90
16283;DHT22;8249;48.708;9.030;2024-03-08T02:28:13;1.70;99.90
16283;DHT22;8249;48.708;9.030;2024-03-08T02:30:40;1.70;99.90
16283;DHT22;8249;48.708;9.030;2024-03-08T02:33:07;1.70;99.90
16283;DHT22;8249;48.708;9.030;2024-03-08T02:35:35;1.70;99.90
16283;DHT22;8249;48.708;9.030;2024-03-08T02:38:03;1.60;99.90
16283;DHT22;8249;48.708;9.030;2024-03-08T02:40:30;1.60;99.90
16283;DHT22;8249;48.708;9.030;2024-03-08T02:42:57;1.60;99.90
16283;DHT22;8249;48.708;9.030;2024-03-08T02:45:24;1.60;99.90
16283;DHT22;8249;48.708;9.030;2024-03-08T02:47:51;1.60;99.90
16283;DHT22;8249;48.708;9.030;2024-03-08T02:50:18;1.60;99.90
16283;DHT22;8249;48.708;9.030;2024-03-08T02:52:45;1.50;99.90
16283;DHT22;8249;48.708;9.030;2024-03-08T02:55:14;1.60;99.90
16283;DHT22;8249;48.708;9.030;2024-03-08T02:57:42;1.50;99.90
16283;DHT22;8249;48.708;9.030;2024-03-08T03:00:10;1.50;99.90
16283;DHT22;8249;48.708;9.030;2024-03-08T03:02:38;1.40;99.90
16283;DHT22;8249;48.708;9.030;2024-03-08T03:05:05;1.40;99.90
16283;DHT22;8249;48.708;9.030;2024-03-08T03:07:33;1.40;99.90
16283;DHT22;8249;48.708;9.030;2024-03-08T03:10:00;1.40;99.90
16283;DHT22;8249;48.708;9.030;2024-03-08T03:12:29;1.40;99.90
16283;DHT22;8249;48.708;9.030;2024-03-08T03:14:56;1.40;99.90
16283;DHT22;8249;48.708;9.030;2024-03-08T03:17:23;1.40;99.90
16283;DHT22;8249;48.708;9.030;2024-03-08T03:19:50;1.30;99.90
16283;DHT22;8249;48.708;9.030;2024-03-08T03:22:17;1.30;99.90
16283;DHT22;8249;48.708;9.030;2024-03-08T03:24:44;1.30;99.90
16283;DHT22;8249;48.708;9.030;2024-03-08T03:27:11;1.30;99.90
16283;DHT22;8249;48.708;9.030;2024-03-08T03:29:40;1.20;99.90
16283;DHT22;8249;48.708;9.030;2024-03-08T03:32:11;1.20;99.90
16283;DHT22;8249;48.708;9.030;2024-03-08T03:34:38;1.20;99.90
16283;DHT22;8249;48.708;9.030;2024-03-08T03:37:05;1.10;99.90
16283;DHT22;8249;48.708;9.030;2024-03-08T03:39:34;1.20;99.90
16283;DHT22;8249;48.708;9.030;2024-03-08T03:42:06;1.20;99.90
16283;DHT22;8249;48.708;9.030;2024-03-08T03:44:33;1.20;99.90
16283;DHT22;8249;48.708;9.030;2024-03-08T03:47:01;1.20;99.90
16283;DHT22;8249;48.708;9.030;2024-03-08T03:49:28;1.20;99.90
16283;DHT22;8249;48.708;9.030;2024-03-08T03:51:55;1.20;99.90
16283;DHT22;8249;48.708;9.030;2024-03-08T03:54:22;1.10;99.90
16283;DHT22;8249;48.708;9.030;2024-03-08T03:56:48;1.20;99.90
16283;DHT22;8249;48.708;9.030;2024-03-08T03:59:18;1.20;99.90
16283;DHT22;8249;48.708;9.030;2024-03-08T04:01:45;1.10;99.90
16283;DHT22;8249;48.708;9.030;2024-03-08T04:04:13;1.10;99.90
16283;DHT22;8249;48.708;9.030;2024-03-08T04:06:40;1.10;99.90
16283;DHT22;8249;48.708;9.030;2024-03-08T04:09:07;1.00;99.90
16283;DHT22;8249;48.708;9.030;2024-03-08T04:11:33;1.00;99.90
16283;DHT22;8249;48.708;9.030;2024-03-08T04:14:00;1.00;99.90
16283;DHT22;8249;48.708;9.030;2024-03-08T04:16:27;1.00;99.90
16283;DHT22;8249;48.708;9.030;2024-03-08T04:18:54;1.00;99.90
16283;DHT22;8249;48.708;9.030;2024-03-08T04:21:22;1.00;99.90
16283;DHT22;8249;48.708;9.030;2024-03-08T04:23:49;0.90;99.90
16283;DHT22;8249;48.708;9.030;2024-03-08T04:26:16;0.90;99.90
16283;DHT22;8249;48.708;9.030;2024-03-08T04:28:42;0.90;99.90
16283;DHT22;8249;48.708;9.030;2024-03-08T04:31:09;0.90;99.90
16283;DHT22;8249;48.708;9.030;2024-03-08T04:33:36;0.90;99.90
16283;DHT22;8249;48.708;9.030;2024-03-08T04:36:04;0.90;99.90
16283;DHT22;8249;48.708;9.030;2024-03-08T04:38:34;0.90;99.90
16283;DHT22;8249;48.708;9.030;2024-03-08T04:41:01;0.90;99.90
16283;DHT22;8249;48.708;9.030;2024-03-08T04:43:29;0.90;99.90
16283;DHT22;8249;48.708;9.030;2024-03-08T04:45:56;0.80;99.90
16283;DHT22;8249;48.708;9.030;2024-03-08T04:48:22;0.80;99.90
16283;DHT22;8249;48.708;9.030;2024-03-08T04:50:52;0.80;99.90
16283;DHT22;8249;48.708;9.030;2024-03-08T04:53:19;0.80;99.90
16283;DHT22;8249;48.708;9.030;2024-03-08T04:55:47;0.80;99.90
16283;DHT22;8249;48.708;9.030;2024-03-08T04:58:14;0.70;99.90
16283;DHT22;8249;48.708;9.030;2024-03-08T05:00:42;0.80;99.90
16283;DHT22;8249;48.708;9.030;2024-03-08T05:03:08;0.70;99.90
16283;DHT22;8249;48.708;9.030;2024-03-08T05:05:35;0.70;99.90
16283;DHT22;8249;48.708;9.030;2024-03-08T05:08:04;0.70;99.90
16283;DHT22;8249;48.708;9.030;2024-03-08T05:10:31;0.70;99.90
16283;DHT22;8249;48.708;9.030;2024-03-08T05:12:59;0.60;99.90
16283;DHT22;8249;48.708;9.030;2024-03-08T05:15:26;0.60;99.90
16283;DHT22;8249;48.708;9.030;2024-03-08T05:17:53;0.60;99.90
16283;DHT22;8249;48.708;9.030;2024-03-08T05:20:21;0.60;99.90
16283;DHT22;8249;48.708;9.030;2024-03-08T05:22:48;0.60;99.90
16283;DHT22;8249;48.708;9.030;2024-03-08T05:25:15;0.60;99.90
16283;DHT22;8249;48.708;9.030;2024-03-08T05:27:43;0.50;99.90
16283;DHT22;8249;48.708;9.030;2024-03-08T05:30:11;0.60;99.90
16283;DHT22;8249;48.708;9.030;2024-03-08T05:32:40;0.50;99.90
16283;DHT22;8249;48.708;9.030;2024-03-08T05:35:10;0.40;99.90
16283;DHT22;8249;48.708;9.030;2024-03-08T05:37:37;0.40;99.90
16283;DHT22;8249;48.708;9.030;2024-03-08T05:40:05;0.40;99.90
16283;DHT22;8249;48.708;9.030;2024-03-08T05:42:35;0.40;99.90
16283;DHT22;8249;48.708;9.030;2024-03-08T05:45:02;0.40;99.90
16283;DHT22;8249;48.708;9.030;2024-03-08T05:47:31;0.40;99.90
16283;DHT22;8249;48.708;9.030;2024-03-08T05:49:58;0.40;99.90
16283;DHT22;8249;48.708;9.030;2024-03-08T05:52:25;0.40;99.90
16283;DHT22;8249;48.708;9.030;2024-03-08T05:54:52;0.40;99.90
16283;DHT22;8249;48.708;9.030;2024-03-08T05:57:19;0.40;99.90
16283;DHT22;8249;48.708;9.030;2024-03-08T05:59:48;0.40;99.90
16283;DHT22;8249;48.708;9.030;2024-03-08T06:02:14;0.40;99.90
16283;DHT22;8249;48.708;9.030;2024-03-08T06:04:46;0.40;99.90
16283;DHT22;8249;48.708;9.030;2024-03-08T06:07:13;0.30;99.90
16283;DHT22;8249;48.708;9.030;2024-03-08T06:09:40;0.30;99.90
16283;DHT22;8249;48.708;9.030;2024-03-08T06:12:10;0.30;99.90
16283;DHT22;8249;48.708;9.030;2024-03-08T06:14:37;0.30;99.90
16283;DHT22;8249;48.708;9.030;2024-03-08T06:17:04;0.30;99.90
16283;DHT22;8249;48.708;9.030;2024-03-08T06:19:33;0.40;99.90
16283;DHT22;8249;48.708;9.030;2024-03-08T06:22:03;0.40;99.90
16283;DHT22;8249;48.708;9.030;2024-03-08T06:24:31;0.50;99.90
16283;DHT22;8249;48.708;9.030;2024-03-08T06:26:58;0.60;99.90
16283;DHT22;8249;48.708;9.030;2024-03-08T06:29:24;0.70;99.90
16283;DHT22;8249;48.708;9.030;2024-03-08T06:31:51;0.80;99.90
16283;DHT22;8249;48.708;9.030;2024-03-08T06:34:19;0.90;99.90
16283;DHT22;8249;48.708;9.030;2024-03-08T06:36:46;1.00;99.90
16283;DHT22;8249;48.708;9.030;2024-03-08T06:39:14;1.00;99.90
16283;DHT22;8249;48.708;9.030;2024-03-08T06:41:40;1.10;99.90
16283;DHT22;8249;48.708;9.030;2024-03-08T06:44:10;1.30;99.90
16283;DHT22;8249;48.708;9.030;2024-03-08T06:46:36;1.40;99.90
16283;DHT22;8249;48.708;9.030;2024-03-08T06:49:04;1.50;99.90
16283;DHT22;8249;48.708;9.030;2024-03-08T06:51:32;1.60;99.90
16283;DHT22;8249;48.708;9.030;2024-03-08T06:53:59;1.70;99.90
16283;DHT22;8249;48.708;9.030;2024-03-08T06:56:27;1.80;99.90
16283;DHT22;8249;48.708;9.030;2024-03-08T06:58:55;1.90;99.90
16283;DHT22;8249;48.708;9.030;2024-03-08T07:01:22;1.90;99.90
16283;DHT22;8249;48.708;9.030;2024-03-08T07:03:49;2.00;99.90
16283;DHT22;8249;48.708;9.030;2024-03-08T07:06:18;2.00;99.90
16283;DHT22;8249;48.708;9.030;2024-03-08T07:08:45;2.20;99.90
16283;DHT22;8249;48.708;9.030;2024-03-08T07:11:12;2.10;99.90
16283;DHT22;8249;48.708;9.030;2024-03-08T07:13:42;2.20;99.90
16283;DHT22;8249;48.708;9.030;2024-03-08T07:16:09;2.30;99.90
16283;DHT22;8249;48.708;9.030;2024-03-08T07:18:37;2.30;99.90
16283;DHT22;8249;48.708;9.030;2024-03-08T07:21:05;2.40;99.90
16283;DHT22;8249;48.708;9.030;2024-03-08T07:23:32;2.50;99.90
16283;DHT22;8249;48.708;9.030;2024-03-08T07:26:28;2.50;99.90
16283;DHT22;8249;48.708;9.030;2024-03-08T07:28:57;2.60;99.90
16283;DHT22;8249;48.708;9.030;2024-03-08T07:31:26;2.60;99.90
16283;DHT22;8249;48.708;9.030;2024-03-08T07:34:03;2.70;99.90
16283;DHT22;8249;48.708;9.030;2024-03-08T07:36:32;2.80;99.90
16283;DHT22;8249;48.708;9.030;2024-03-08T07:38:59;2.80;99.90
16283;DHT22;8249;48.708;9.030;2024-03-08T07:41:26;2.90;99.90
16283;DHT22;8249;48.708;9.030;2024-03-08T07:43:53;3.00;99.90
16283;DHT22;8249;48.708;9.030;2024-03-08T07:46:21;3.00;99.90
16283;DHT22;8249;48.708;9.030;2024-03-08T07:48:48;3.10;99.90
16283;DHT22;8249;48.708;9.030;2024-03-08T07:51:16;3.10;99.90
16283;DHT22;8249;48.708;9.030;2024-03-08T07:53:43;3.20;99.90
16283;DHT22;8249;48.708;9.030;2024-03-08T07:56:10;3.20;99.90
16283;DHT22;8249;48.708;9.030;2024-03-08T07:58:39;3.30;99.90
16283;DHT22;8249;48.708;9.030;2024-03-08T08:01:07;3.30;99.90
16283;DHT22;8249;48.708;9.030;2024-03-08T08:03:36;3.40;99.90
16283;DHT22;8249;48.708;9.030;2024-03-08T08:06:04;3.40;99.90
16283;DHT22;8249;48.708;9.030;2024-03-08T08:08:31;3.50;99.90
16283;DHT22;8249;48.708;9.030;2024-03-08T08:10:58;3.50;99.90
16283;DHT22;8249;48.708;9.030;2024-03-08T08:13:26;3.60;99.90
16283;DHT22;8249;48.708;9.030;2024-03-08T08:15:57;3.60;99.90
16283;DHT22;8249;48.708;9.030;2024-03-08T08:18:24;3.60;99.90
16283;DHT22;8249;48.708;9.030;2024-03-08T08:20:53;3.60;99.90
16283;DHT22;8249;48.708;9.030;2024-03-08T08:23:20;3.60;99.90
16283;DHT22;8249;48.708;9.030;2024-03-08T08:25:47;3.60;99.90
16283;DHT22;8249;48.708;9.030;2024-03-08T08:28:15;3.70;99.90
16283;DHT22;8249;48.708;9.030;2024-03-08T08:30:43;3.70;99.90
16283;DHT22;8249;48.708;9.030;2024-03-08T08:33:10;3.70;99.90
16283;DHT22;8249;48.708;9.030;2024-03-08T08:35:37;3.70;99.90
16283;DHT22;8249;48.708;9.030;2024-03-08T08:38:05;3.80;99.90
16283;DHT22;8249;48.708;9.030;2024-03-08T08:40:33;3.70;99.90
16283;DHT22;8249;48.708;9.030;2024-03-08T08:43:01;3.70;99.90
16283;DHT22;8249;48.708;9.030;2024-03-08T08:45:30;3.80;99.90
16283;DHT22;8249;48.708;9.030;2024-03-08T08:47:57;3.80;99.90
16283;DHT22;8249;48.708;9.030;2024-03-08T08:50:25;3.90;99.90
16283;DHT22;8249;48.708;9.030;2024-03-08T08:52:52;3.90;99.90
16283;DHT22;8249;48.708;9.030;2024-03-08T08:55:21;3.70;99.90
16283;DHT22;8249;48.708;9.030;2024-03-08T08:57:51;3.80;99.90
16283;DHT22;8249;48.708;9.030;2024-03-08T09:00:19;3.80;99.90
16283;DHT22;8249;48.708;9.030;2024-03-08T09:02:46;3.90;99.90
16283;DHT22;8249;48.708;9.030;2024-03-08T09:05:14;3.90;99.90
16283;DHT22;8249;48.708;9.030;2024-03-08T09:07:43;4.00;99.90
16283;DHT22;8249;48.708;9.030;2024-03-08T09:10:11;3.90;99.90
16283;DHT22;8249;48.708;9.030;2024-03-08T09:12:41;4.00;99.90
16283;DHT22;8249;48.708;9.030;2024-03-08T09:15:08;3.80;99.90
16283;DHT22;8249;48.708;9.030;2024-03-08T09:17:36;3.70;99.90
16283;DHT22;8249;48.708;9.030;2024-03-08T09:20:06;3.90;99.90
16283;DHT22;8249;48.708;9.030;2024-03-08T09:22:34;3.90;99.90
16283;DHT22;8249;48.708;9.030;2024-03-08T09:25:01;3.90;99.90
16283;DHT22;8249;48.708;9.030;2024-03-08T09:27:30;3.90;99.90
16283;DHT22;8249;48.708;9.030;2024-03-08T09:29:59;4.00;99.90
16283;DHT22;8249;48.708;9.030;2024-03-08T09:32:26;4.10;99.90
16283;DHT22;8249;48.708;9.030;2024-03-08T09:34:53;4.20;99.90
16283;DHT22;8249;48.708;9.030;2024-03-08T09:37:21;4.30;99.90
16283;DHT22;8249;48.708;9.030;2024-03-08T09:39:48;4.20;99.90
16283;DHT22;8249;48.708;9.030;2024-03-08T09:42:15;4.30;99.90
16283;DHT22;8249;48.708;9.030;2024-03-08T09:44:44;4.30;99.90
16283;DHT22;8249;48.708;9.030;2024-03-08T09:47:13;4.30;99.90
16283;DHT22;8249;48.708;9.030;2024-03-08T09:49:42;4.30;99.90
16283;DHT22;8249;48.708;9.030;2024-03-08T09:52:09;4.40;99.90
16283;DHT22;8249;48.708;9.030;2024-03-08T09:54:38;4.50;99.90
16283;DHT22;8249;48.708;9.030;2024-03-08T09:57:06;4.60;99.90
16283;DHT22;8249;48.708;9.030;2024-03-08T09:59:34;4.70;99.90
16283;DHT22;8249;48.708;9.030;2024-03-08T10:02:17;4.80;99.90
16283;DHT22;8249;48.708;9.030;2024-03-08T10:04:44;4.80;99.90
16283;DHT22;8249;48.708;9.030;2024-03-08T10:07:14;4.90;99.90
16283;DHT22;8249;48.708;9.030;2024-03-08T10:09:41;5.00;99.90
16283;DHT22;8249;48.708;9.030;2024-03-08T10:12:13;5.10;99.90
16283;DHT22;8249;48.708;9.030;2024-03-08T10:14:40;5.10;99.90
16283;DHT22;8249;48.708;9.030;2024-03-08T10:17:08;5.20;99.90
16283;DHT22;8249;48.708;9.030;2024-03-08T10:19:36;5.10;99.90
16283;DHT22;8249;48.708;9.030;2024-03-08T10:22:04;5.20;99.90
16283;DHT22;8249;48.708;9.030;2024-03-08T10:24:32;5.00;99.90
16283;DHT22;8249;48.708;9.030;2024-03-08T10:27:00;5.00;99.90
16283;DHT22;8249;48.708;9.030;2024-03-08T10:29:31;5.00;99.90
16283;DHT22;8249;48.708;9.030;2024-03-08T10:31:58;5.00;99.90
16283;DHT22;8249;48.708;9.030;2024-03-08T10:34:25;5.10;99.90
16283;DHT22;8249;48.708;9.030;2024-03-08T10:36:54;5.40;99.90
16283;DHT22;8249;48.708;9.030;2024-03-08T10:39:25;5.40;99.90
16283;DHT22;8249;48.708;9.030;2024-03-08T10:41:55;5.50;99.90
16283;DHT22;8249;48.708;9.030;2024-03-08T10:44:40;5.40;99.90
16283;DHT22;8249;48.708;9.030;2024-03-08T10:47:17;5.40;99.90
16283;DHT22;8249;48.708;9.030;2024-03-08T10:49:51;5.50;99.90
16283;DHT22;8249;48.708;9.030;2024-03-08T10:52:21;5.70;99.90
16283;DHT22;8249;48.708;9.030;2024-03-08T10:54:48;5.80;99.90
16283;DHT22;8249;48.708;9.030;2024-03-08T10:57:18;6.00;99.90
16283;DHT22;8249;48.708;9.030;2024-03-08T10:59:47;6.30;99.90
16283;DHT22;8249;48.708;9.030;2024-03-08T11:02:16;6.50;99.90
16283;DHT22;8249;48.708;9.030;2024-03-08T11:04:48;6.70;99.90
16283;DHT22;8249;48.708;9.030;2024-03-08T11:07:15;7.00;99.90
16283;DHT22;8249;48.708;9.030;2024-03-08T11:09:47;7.10;99.90
16283;DHT22;8249;48.708;9.030;2024-03-08T11:12:25;7.10;99.90
16283;DHT22;8249;48.708;9.030;2024-03-08T11:14:55;7.10;99.90
16283;DHT22;8249;48.708;9.030;2024-03-08T11:17:39;7.30;99.90
16283;DHT22;8249;48.708;9.030;2024-03-08T11:20:10;7.80;99.90
16283;DHT22;8249;48.708;9.030;2024-03-08T11:22:42;8.10;99.90
16283;DHT22;8249;48.708;9.030;2024-03-08T11:25:31;8.30;99.90
16283;DHT22;8249;48.708;9.030;2024-03-08T11:28:14;8.80;99.90
16283;DHT22;8249;48.708;9.030;2024-03-08T11:30:44;9.10;99.90
16283;DHT22;8249;48.708;9.030;2024-03-08T11:33:13;9.40;99.90
16283;DHT22;8249;48.708;9.030;2024-03-08T11:35:41;9.40;99.90
16283;DHT22;8249;48.708;9.030;2024-03-08T11:38:12;9.40;99.90
16283;DHT22;8249;48.708;9.030;2024-03-08T11:40:41;9.60;99.90
16283;DHT22;8249;48.708;9.030;2024-03-08T11:43:08;10.20;99.90
16283;DHT22;8249;48.708;9.030;2024-03-08T11:45:36;10.70;99.90
16283;DHT22;8249;48.708;9.030;2024-03-08T11:48:04;10.70;99.90
16283;DHT22;8249;48.708;9.030;2024-03-08T11:50:31;10.80;99.90
16283;DHT22;8249;48.708;9.030;2024-03-08T11:53:02;11.10;99.90
16283;DHT22;8249;48.708;9.030;2024-03-08T11:55:30;11.40;99.90
16283;DHT22;8249;48.708;9.030;2024-03-08T11:58:03;11.30;99.90
16283;DHT22;8249;48.708;9.030;2024-03-08T12:00:30;11.50;99.90
16283;DHT22;8249;48.708;9.030;2024-03-08T12:03:01;11.80;99.90
16283;DHT22;8249;48.708;9.030;2024-03-08T12:05:28;12.10;99.90
16283;DHT22;8249;48.708;9.030;2024-03-08T12:07:57;13.00;99.90
16283;DHT22;8249;48.708;9.030;2024-03-08T12:10:24;14.10;99.90
16283;DHT22;8249;48.708;9.030;2024-03-08T12:12:52;15.00;99.90
16283;DHT22;8249;48.708;9.030;2024-03-08T12:15:22;15.80;99.90
16283;DHT22;8249;48.708;9.030;2024-03-08T12:17:50;16.20;99.90
16283;DHT22;8249;48.708;9.030;2024-03-08T12:20:19;16.30;99.90
16283;DHT22;8249;48.708;9.030;2024-03-08T12:22:48;16.30;99.90
16283;DHT22;8249;48.708;9.030;2024-03-08T12:25:15;15.80;99.90
16283;DHT22;8249;48.708;9.030;2024-03-08T12:27:43;15.80;99.90
16283;DHT22;8249;48.708;9.030;2024-03-08T12:30:21;16.20;99.90
16283;DHT22;8249;48.708;9.030;2024-03-08T12:32:53;16.30;98.30
16283;DHT22;8249;48.708;9.030;2024-03-08T12:35:23;15.80;98.40
16283;DHT22;8249;48.708;9.030;2024-03-08T12:37:52;16.20;98.10
16283;DHT22;8249;48.708;9.030;2024-03-08T12:40:19;16.80;98.40
16283;DHT22;8249;48.708;9.030;2024-03-08T12:42:52;17.40;96.10
16283;DHT22;8249;48.708;9.030;2024-03-08T12:45:21;16.20;96.60
16283;DHT22;8249;48.708;9.030;2024-03-08T12:47:50;16.00;97.90
16283;DHT22;8249;48.708;9.030;2024-03-08T12:50:17;17.10;97.60
16283;DHT22;8249;48.708;9.030;2024-03-08T12:52:44;18.10;95.60
16283;DHT22;8249;48.708;9.030;2024-03-08T12:55:11;18.40;95.60
16283;DHT22;8249;48.708;9.030;2024-03-08T12:57:38;19.00;93.80
16283;DHT22;8249;48.708;9.030;2024-03-08T13:00:06;19.20;92.80
16283;DHT22;8249;48.708;9.030;2024-03-08T13:02:40;19.10;90.50
16283;DHT22;8249;48.708;9.030;2024-03-08T13:05:08;18.00;91.60
16283;DHT22;8249;48.708;9.030;2024-03-08T13:07:36;18.10;92.00
16283;DHT22;8249;48.708;9.030;2024-03-08T13:10:04;18.60;91.90
16283;DHT22;8249;48.708;9.030;2024-03-08T13:12:32;19.10;90.80
16283;DHT22;8249;48.708;9.030;2024-03-08T13:15:00;18.60;89.10
16283;DHT22;8249;48.708;9.030;2024-03-08T13:17:27;18.30;90.60
16283;DHT22;8249;48.708;9.030;2024-03-08T13:19:56;18.60;90.70
16283;DHT22;8249;48.708;9.030;2024-03-08T13:22:24;18.90;90.50
16283;DHT22;8249;48.708;9.030;2024-03-08T13:24:51;19.20;88.80
16283;DHT22;8249;48.708;9.030;2024-03-08T13:27:18;18.40;89.00
16283;DHT22;8249;48.708;9.030;2024-03-08T13:29:48;18.50;89.60
16283;DHT22;8249;48.708;9.030;2024-03-08T13:32:16;19.20;90.30
16283;DHT22;8249;48.708;9.030;2024-03-08T13:34:46;19.60;89.20
16283;DHT22;8249;48.708;9.030;2024-03-08T13:37:17;19.60;85.70
16283;DHT22;8249;48.708;9.030;2024-03-08T13:39:45;19.90;86.10
16283;DHT22;8249;48.708;9.030;2024-03-08T13:42:12;19.60;85.60
16283;DHT22;8249;48.708;9.030;2024-03-08T13:44:44;20.00;84.80
16283;DHT22;8249;48.708;9.030;2024-03-08T13:47:12;20.60;84.40
16283;DHT22;8249;48.708;9.030;2024-03-08T13:49:39;20.30;82.70
16283;DHT22;8249;48.708;9.030;2024-03-08T13:52:06;20.20;81.90
16283;DHT22;8249;48.708;9.030;2024-03-08T13:54:36;20.20;82.40
16283;DHT22;8249;48.708;9.030;2024-03-08T13:57:04;20.10;82.40
16283;DHT22;8249;48.708;9.030;2024-03-08T13:59:32;19.90;82.30
16283;DHT22;8249;48.708;9.030;2024-03-08T14:02:01;19.80;82.10
16283;DHT22;8249;48.708;9.030;2024-03-08T14:04:28;20.30;81.60
16283;DHT22;8249;48.708;9.030;2024-03-08T14:06:55;20.10;81.30
16283;DHT22;8249;48.708;9.030;2024-03-08T14:09:27;20.40;81.90
16283;DHT22;8249;48.708;9.030;2024-03-08T14:11:56;20.80;81.00
16283;DHT22;8249;48.708;9.030;2024-03-08T14:14:24;20.60;79.60
16283;DHT22;8249;48.708;9.030;2024-03-08T14:16:51;20.30;80.80
16283;DHT22;8249;48.708;9.030;2024-03-08T14:19:19;20.10;80.90
16283;DHT22;8249;48.708;9.030;2024-03-08T14:21:46;20.00;80.20
16283;DHT22;8249;48.708;9.030;2024-03-08T14:24:15;20.10;79.90
16283;DHT22;8249;48.708;9.030;2024-03-08T14:26:42;19.80;80.80
16283;DHT22;8249;48.708;9.030;2024-03-08T14:29:10;20.00;81.60
16283;DHT22;8249;48.708;9.030;2024-03-08T14:31:38;20.10;79.90
16283;DHT22;8249;48.708;9.030;2024-03-08T14:34:07;20.00;80.30
16283;DHT22;8249;48.708;9.030;2024-03-08T14:36:34;20.40;81.30
16283;DHT22;8249;48.708;9.030;2024-03-08T14:39:01;20.30;79.10
16283;DHT22;8249;48.708;9.030;2024-03-08T14:41:28;19.50;79.50
16283;DHT22;8249;48.708;9.030;2024-03-08T14:43:55;19.10;80.50
16283;DHT22;8249;48.708;9.030;2024-03-08T14:46:24;19.20;80.40
16283;DHT22;8249;48.708;9.030;2024-03-08T14:48:52;19.00;80.60
16283;DHT22;8249;48.708;9.030;2024-03-08T14:51:19;19.20;80.50
16283;DHT22;8249;48.708;9.030;2024-03-08T14:53:48;19.40;81.00
16283;DHT22;8249;48.708;9.030;2024-03-08T14:56:16;19.40;79.90
16283;DHT22;8249;48.708;9.030;2024-03-08T14:58:43;19.50;80.30
16283;DHT22;8249;48.708;9.030;2024-03-08T15:01:10;19.30;79.40
16283;DHT22;8249;48.708;9.030;2024-03-08T15:03:41;19.40;79.80
16283;DHT22;8249;48.708;9.030;2024-03-08T15:06:08;19.70;79.70
16283;DHT22;8249;48.708;9.030;2024-03-08T15:08:35;19.40;78.30
16283;DHT22;8249;48.708;9.030;2024-03-08T15:11:03;19.10;79.80
16283;DHT22;8249;48.708;9.030;2024-03-08T15:13:31;18.90;79.10
16283;DHT22;8249;48.708;9.030;2024-03-08T15:16:05;19.00;82.00
16283;DHT22;8249;48.708;9.030;2024-03-08T15:18:33;19.60;81.40
16283;DHT22;8249;48.708;9.030;2024-03-08T15:21:03;19.80;79.30
16283;DHT22;8249;48.708;9.030;2024-03-08T15:23:33;19.90;79.60
16283;DHT22;8249;48.708;9.030;2024-03-08T15:26:00;19.70;78.10
16283;DHT22;8249;48.708;9.030;2024-03-08T15:28:27;19.00;78.70
16283;DHT22;8249;48.708;9.030;2024-03-08T15:31:02;18.50;79.50
16283;DHT22;8249;48.708;9.030;2024-03-08T15:33:32;17.90;80.80
16283;DHT22;8249;48.708;9.030;2024-03-08T15:35:59;17.60;81.50
16283;DHT22;8249;48.708;9.030;2024-03-08T15:38:34;17.70;81.60
16283;DHT22;8249;48.708;9.030;2024-03-08T15:41:01;17.50;81.90
16283;DHT22;8249;48.708;9.030;2024-03-08T15:43:32;17.60;81.70
16283;DHT22;8249;48.708;9.030;2024-03-08T15:46:00;17.20;82.60
16283;DHT22;8249;48.708;9.030;2024-03-08T15:48:30;17.20;83.50
16283;DHT22;8249;48.708;9.030;2024-03-08T15:50:58;16.70;83.70
16283;DHT22;8249;48.708;9.030;2024-03-08T15:53:27;16.80;84.00
16283;DHT22;8249;48.708;9.030;2024-03-08T15:55:57;16.50;84.40
16283;DHT22;8249;48.708;9.030;2024-03-08T15:58:24;16.80;84.80
16283;DHT22;8249;48.708;9.030;2024-03-08T16:00:51;16.80;84.70
16283;DHT22;8249;48.708;9.030;2024-03-08T16:03:19;17.10;84.80
16283;DHT22;8249;48.708;9.030;2024-03-08T16:05:46;17.20;84.80